Terminal Aerodrome Forecast
Issued by NWS Dodge City, KS

Home | Current Version | Previous Version | Graphics & Text | Print | Product List | Glossary Off
Versions: 1 2 3 4 5 6 7 8 9 10 11 12 13 14 15 16 17 18

000
FTUS43 KDDC 222342
TAFDDC
TAF
KDDC 222342Z 2300/2324 17013KT P6SM SCT060
     FM230400 17008KT 4SM BR SCT015
     FM231100 VRB05KT 1/2SM FG OVC005
     FM231700 16006KT P6SM SCT035=

USA.gov is the U.S. government's official web portal to all federal, state and local government web resources and services.